createdAt,value
2023-08-19T00:00:02.575Z,19.11
2023-08-19T00:05:02.156Z,19.08
2023-08-19T00:10:02.936Z,19.12
2023-08-19T00:15:02.685Z,19.11
2023-08-19T00:20:02.496Z,19.11
2023-08-19T00:25:02.281Z,19.06
2023-08-19T00:30:03.020Z,18.97
2023-08-19T00:35:02.724Z,18.91
2023-08-19T00:40:02.433Z,18.82
2023-08-19T00:45:03.116Z,18.85
2023-08-19T00:50:02.877Z,18.73
2023-08-19T00:55:03.377Z,18.55
2023-08-19T01:00:02.345Z,18.8
2023-08-19T01:05:02.997Z,18.61
2023-08-19T01:10:02.665Z,18.45
2023-08-19T01:15:03.033Z,18.27
2023-08-19T01:20:02.646Z,18.26
2023-08-19T01:25:02.422Z,17.92
2023-08-19T01:30:03.109Z,17.31
2023-08-19T01:35:03.002Z,17.36
2023-08-19T01:40:02.722Z,17.09
2023-08-19T01:45:02.522Z,17.55
2023-08-19T01:50:03.136Z,17.69
2023-08-19T01:55:03.541Z,17.44
2023-08-19T02:00:02.502Z,17.29
2023-08-19T02:05:03.173Z,17.75
2023-08-19T02:10:03.030Z,17.58
2023-08-19T02:15:02.986Z,17.44
2023-08-19T02:20:02.502Z,17.14
2023-08-19T02:25:02.183Z,16.85
2023-08-19T02:30:02.935Z,16.7
2023-08-19T02:35:02.603Z,16.44
2023-08-19T02:40:02.322Z,16.71
2023-08-19T02:45:03.080Z,16.7
2023-08-19T02:50:02.765Z,16.8
2023-08-19T02:55:03.580Z,17.24
2023-08-19T03:00:02.426Z,17.23
2023-08-19T03:05:03.047Z,17.15
2023-08-19T03:10:02.871Z,16.89
2023-08-19T03:15:02.608Z,16.83
2023-08-19T03:20:02.337Z,17.28
2023-08-19T03:25:03.113Z,17.27
2023-08-19T03:30:02.924Z,17.14
2023-08-19T03:35:02.590Z,17.1
2023-08-19T03:40:02.315Z,17.21
2023-08-19T03:45:03.174Z,17.18
2023-08-19T03:50:02.849Z,16.69
2023-08-19T03:55:03.127Z,16.31
2023-08-19T04:00:02.243Z,16.12
2023-08-19T04:05:03.470Z,16.76
2023-08-19T04:10:02.634Z,17.07
2023-08-19T04:15:02.747Z,17.11
2023-08-19T04:20:02.493Z,17.11
2023-08-19T04:25:02.335Z,17.13
2023-08-19T04:30:03.101Z,17.1
2023-08-19T04:35:02.855Z,17.29
2023-08-19T04:40:02.837Z,17.58
2023-08-19T04:45:02.398Z,17.77
2023-08-19T04:50:03.093Z,17.88
2023-08-19T04:55:03.782Z,18.12
2023-08-19T05:00:02.728Z,18.82
2023-08-19T05:05:02.675Z,19.57
2023-08-19T05:10:02.504Z,19.68
2023-08-19T05:15:02.760Z,20.21
2023-08-19T05:20:02.471Z,19.67
2023-08-19T05:25:02.269Z,20.13
2023-08-19T05:30:03.015Z,19.73
2023-08-19T05:35:03.010Z,20.35
2023-08-19T05:40:02.693Z,20.13
2023-08-19T05:45:02.508Z,19.88
2023-08-19T05:50:02.277Z,20.06
2023-08-19T05:55:04.056Z,20.12
2023-08-19T06:00:02.805Z,20.04
2023-08-19T06:05:02.526Z,20.04
2023-08-19T06:10:02.387Z,20.16
2023-08-19T06:15:03.090Z,20.17
2023-08-19T06:20:02.828Z,20.94
2023-08-19T06:25:02.555Z,23
2023-08-19T06:30:02.326Z,24.61
2023-08-19T06:35:02.277Z,24.28
2023-08-19T06:40:02.969Z,24.25
2023-08-19T06:45:02.744Z,23.91
2023-08-19T06:50:02.387Z,24.34
2023-08-19T06:55:03.220Z,23.32
2023-08-19T07:00:02.325Z,23.39
2023-08-19T07:05:03.035Z,23.27
2023-08-19T07:10:03.058Z,23.29
2023-08-19T07:15:02.603Z,23.19
2023-08-19T07:20:02.425Z,23.96
2023-08-19T07:25:02.264Z,24.07
2023-08-19T07:30:02.975Z,24.02
2023-08-19T07:35:02.594Z,23.82
2023-08-19T07:40:02.289Z,24.4
2023-08-19T07:45:03.237Z,24.75
2023-08-19T07:50:02.853Z,24.28
2023-08-19T07:55:03.101Z,23.97
2023-08-19T08:00:02.557Z,24.07
2023-08-19T08:05:02.408Z,24.77
2023-08-19T08:10:02.996Z,24.96
2023-08-19T08:15:02.782Z,25.99
2023-08-19T08:20:02.437Z,25.67
2023-08-19T08:25:02.219Z,26.13
2023-08-19T08:30:02.930Z,25.96
2023-08-19T08:35:02.535Z,26.99
2023-08-19T08:40:02.233Z,27.39
2023-08-19T08:45:03.064Z,28.04
2023-08-19T08:50:02.946Z,28.11
2023-08-19T08:55:03.404Z,27.97
2023-08-19T09:00:02.378Z,28.31
2023-08-19T09:05:03.079Z,28.51
2023-08-19T09:10:02.830Z,28.67
2023-08-19T09:15:02.474Z,28.62
2023-08-19T09:20:02.287Z,29.27
2023-08-19T09:25:02.974Z,28.78
2023-08-19T09:30:02.723Z,29.9
2023-08-19T09:35:02.385Z,30.08
2023-08-19T09:40:03.096Z,29.6
2023-08-19T09:45:03.007Z,30.36
2023-08-19T09:50:02.442Z,30.8
2023-08-19T09:55:03.881Z,31.74
2023-08-19T10:00:03.186Z,30.46
2023-08-19T10:05:03.171Z,30.34
2023-08-19T10:10:02.929Z,31.98
2023-08-19T10:15:02.651Z,31.97
2023-08-19T10:20:02.370Z,31.7
2023-08-19T10:25:03.121Z,31.24
2023-08-19T10:30:02.815Z,31.25
2023-08-19T10:35:02.487Z,32.2
2023-08-19T10:40:02.414Z,31.91
2023-08-19T10:45:02.255Z,32.54
2023-08-19T10:50:03.033Z,32.05
2023-08-19T10:55:03.865Z,32.81
2023-08-19T11:00:02.467Z,32.13
2023-08-19T11:05:03.052Z,32.47
2023-08-19T11:10:02.914Z,32.16
2023-08-19T11:15:02.740Z,32.3
2023-08-19T11:20:02.736Z,32.01
2023-08-19T11:25:02.358Z,32.7
2023-08-19T11:30:03.174Z,32.93
2023-08-19T11:35:02.879Z,32.89
2023-08-19T11:40:06.551Z,33.2
2023-08-19T11:45:02.727Z,32.03
2023-08-19T11:50:02.450Z,33.49
2023-08-19T11:55:04.100Z,34.23
2023-08-19T12:00:02.889Z,31.83
2023-08-19T12:05:02.714Z,33
2023-08-19T12:10:02.593Z,33.9
2023-08-19T12:15:02.529Z,32.42
2023-08-19T12:20:03.136Z,32.17
2023-08-19T12:25:02.850Z,34.1
2023-08-19T12:30:02.584Z,33.18
2023-08-19T12:35:02.222Z,34.15
2023-08-19T12:40:03.041Z,34.46
2023-08-19T12:45:02.755Z,33.99
2023-08-19T12:50:02.537Z,34.21
2023-08-19T12:55:03.035Z,34.15
2023-08-19T13:00:02.938Z,34.88
2023-08-19T13:05:02.616Z,35.46
2023-08-19T13:10:02.291Z,33.83
2023-08-19T13:15:03.060Z,33.99
2023-08-19T13:20:02.174Z,34.29
2023-08-19T13:25:02.959Z,33.73
2023-08-19T13:30:03.749Z,34.24
2023-08-19T13:35:02.201Z,34.12
2023-08-19T13:40:02.973Z,33.67
2023-08-19T13:45:02.974Z,33.58
2023-08-19T13:50:02.617Z,34.44
2023-08-19T13:55:02.876Z,34.17
2023-08-19T14:00:03.009Z,35.31
2023-08-19T14:05:02.604Z,34.66
2023-08-19T14:10:02.316Z,34.18
2023-08-19T14:15:03.018Z,33.69
2023-08-19T14:20:03.473Z,34.74
2023-08-19T14:25:03.128Z,34.39
2023-08-19T14:30:02.837Z,33.5
2023-08-19T14:35:02.783Z,34.34
2023-08-19T14:40:02.440Z,33.9
2023-08-19T14:45:03.180Z,34.06
2023-08-19T14:50:03.252Z,34.76
2023-08-19T14:55:03.643Z,35.76
2023-08-19T15:00:02.390Z,34.8
2023-08-19T15:05:03.138Z,36.3
2023-08-19T15:10:02.346Z,36.2
2023-08-19T15:15:03.093Z,34.95
2023-08-19T15:20:03.134Z,35.27
2023-08-19T15:25:02.834Z,35.64
2023-08-19T15:30:02.762Z,35.58
2023-08-19T15:35:02.528Z,34.95
2023-08-19T15:40:02.234Z,33.49
2023-08-19T15:45:02.942Z,33.25
2023-08-19T15:50:02.629Z,34.67
2023-08-19T15:55:03.058Z,34.45
2023-08-19T16:00:03.093Z,34.56
2023-08-19T16:05:03.178Z,33.85
2023-08-19T16:10:02.927Z,34.17
2023-08-19T16:15:02.714Z,34.51
2023-08-19T16:20:02.427Z,32.52
2023-08-19T16:25:03.120Z,31.72
2023-08-19T16:30:02.802Z,31.02
2023-08-19T16:35:02.446Z,30.43
2023-08-19T16:40:03.140Z,30.09
2023-08-19T16:45:03.018Z,30.06
2023-08-19T16:50:02.670Z,29.94
2023-08-19T16:55:03.348Z,29.74
2023-08-19T17:00:03.083Z,29.13
2023-08-19T17:05:02.684Z,29.14
2023-08-19T17:10:02.399Z,29.07
2023-08-19T17:15:02.563Z,28.43
2023-08-19T17:20:03.008Z,28.51
2023-08-19T17:25:02.836Z,29.53
2023-08-19T17:30:02.741Z,29.07
2023-08-19T17:35:02.485Z,28.08
2023-08-19T17:40:03.148Z,27.45
2023-08-19T17:45:03.100Z,27.29
2023-08-19T17:50:03.104Z,26.67
2023-08-19T17:55:03.646Z,26.13
2023-08-19T18:00:02.580Z,25.68
2023-08-19T18:05:02.176Z,25.19
2023-08-19T18:10:03.064Z,24.98
2023-08-19T18:15:02.751Z,24.79
2023-08-19T18:20:02.608Z,24.98
2023-08-19T18:25:02.205Z,25.93
2023-08-19T18:30:03.027Z,26.65
2023-08-19T18:35:02.701Z,26.73
2023-08-19T18:40:02.584Z,26.71
2023-08-19T18:45:02.344Z,26.44
2023-08-19T18:50:02.974Z,26.31
2023-08-19T18:55:03.945Z,26.09
2023-08-19T19:00:02.539Z,26.11
2023-08-19T19:05:02.168Z,26.07
2023-08-19T19:10:02.910Z,26.03
2023-08-19T19:15:02.656Z,25.79
2023-08-19T19:20:02.325Z,25.62
2023-08-19T19:25:03.102Z,25.66
2023-08-19T19:30:02.854Z,25.57
2023-08-19T19:35:02.637Z,25.27
2023-08-19T19:40:02.446Z,25.01
2023-08-19T19:45:03.226Z,23.75
2023-08-19T19:50:02.698Z,23.25
2023-08-19T19:55:03.315Z,22.82
2023-08-19T20:00:03.165Z,22.48
2023-08-19T20:05:02.826Z,22.29
2023-08-19T20:10:08.370Z,22.48
2023-08-19T20:15:03.109Z,23.11
2023-08-19T20:20:02.982Z,23.67
2023-08-19T20:25:02.708Z,23.85
2023-08-19T20:30:02.587Z,23.64
2023-08-19T20:35:02.223Z,23.1
2023-08-19T20:40:02.935Z,22.7
2023-08-19T20:45:02.657Z,22.28
2023-08-19T20:50:02.306Z,22.09
2023-08-19T20:55:04.016Z,22.05
2023-08-19T21:00:02.702Z,22.1
2023-08-19T21:05:02.697Z,22.06
2023-08-19T21:10:02.476Z,22.24
2023-08-19T21:15:02.249Z,22.2
2023-08-19T21:20:02.949Z,22.64
2023-08-19T21:25:02.594Z,23.29
2023-08-19T21:30:02.395Z,23.31
2023-08-19T21:35:02.987Z,23.29
2023-08-19T21:40:02.725Z,23.49
2023-08-19T21:45:02.411Z,23.35
2023-08-19T21:50:03.122Z,23.81
2023-08-19T21:55:03.382Z,23.58
2023-08-19T22:00:02.581Z,23.59
2023-08-19T22:05:02.247Z,23.42
2023-08-19T22:10:03.157Z,22.59
2023-08-19T22:15:02.678Z,22.53
2023-08-19T22:20:02.363Z,22.65
2023-08-19T22:25:02.375Z,22.78
2023-08-19T22:30:03.076Z,23.17
2023-08-19T22:35:02.774Z,23.33
2023-08-19T22:40:02.496Z,23.27
2023-08-19T22:45:03.141Z,23.11
2023-08-19T22:50:02.847Z,23.4
2023-08-19T22:55:03.326Z,23.51
2023-08-19T23:00:02.238Z,23.87
2023-08-19T23:05:02.870Z,24.08
2023-08-19T23:10:02.584Z,24.25
2023-08-19T23:15:02.553Z,24.21
2023-08-19T23:20:02.344Z,24.23
2023-08-19T23:25:03.043Z,24.22
2023-08-19T23:30:02.834Z,24.05
2023-08-19T23:35:02.692Z,23.83
2023-08-19T23:40:02.366Z,23.48
2023-08-19T23:45:03.072Z,23.52
2023-08-19T23:50:02.751Z,23.28
2023-08-19T23:55:03.584Z,23
